Time;durP1;ratioP1;P1;durP2;ratioP2;P2;SDS_P1;SDS_P2;PMS_P1;PMS_P2;Temp;Humidity;BMP_temperature;BMP_pressure;BME280_temperature;BME280_humidity;BME280_pressure;Samples;Min_cycle;Max_cycle;Signal;HPM_P1;HPM_P2
2023/01/25 00:04:33;;;;;;;8.63;5.35;;;;;;;;;;10445458;28;20221;-80
2023/01/25 00:09:34;;;;;;;6.57;4.93;;;;;;;;;;10443167;28;20210;-79
2023/01/25 00:14:35;;;;;;;8.40;4.90;;;;;;;;;;10444097;28;20255;-79
2023/01/25 00:19:36;;;;;;;10.65;5.88;;;;;;;;;;10426103;28;20353;-80
2023/01/25 00:24:37;;;;;;;10.75;6.10;;;;;;;;;;10415157;28;20529;-80
2023/01/25 00:29:38;;;;;;;11.60;6.00;;;;;;;;;;10444396;28;20240;-80
2023/01/25 00:34:47;;;;;;;9.48;5.75;;;;;;;;;;10429795;28;20301;-80
2023/01/25 00:39:48;;;;;;;10.02;5.28;;;;;;;;;;10441867;28;20225;-81
2023/01/25 00:44:49;;;;;;;9.98;5.88;;;;;;;;;;10426962;28;20210;-80
2023/01/25 00:49:50;;;;;;;7.82;4.97;;;;;;;;;;10440989;28;20214;-80
2023/01/25 00:54:51;;;;;;;8.23;5.25;;;;;;;;;;10444448;28;20293;-80
2023/01/25 00:59:53;;;;;;;8.60;5.78;;;;;;;;;;10422905;28;20214;-80
2023/01/25 01:04:55;;;;;;;10.30;5.28;;;;;;;;;;10418342;28;20321;-80
2023/01/25 01:09:58;;;;;;;10.75;5.68;;;;;;;;;;10442967;28;20951;-81
2023/01/25 01:14:59;;;;;;;8.55;5.55;;;;;;;;;;10438970;28;20211;-80
2023/01/25 01:20:00;;;;;;;10.20;5.47;;;;;;;;;;10439257;28;20214;-80
2023/01/25 01:25:02;;;;;;;11.00;5.65;;;;;;;;;;10419935;28;20225;-80
2023/01/25 01:30:03;;;;;;;10.77;5.38;;;;;;;;;;10416613;28;20222;-81
2023/01/25 01:35:04;;;;;;;8.98;5.22;;;;;;;;;;10399870;28;20183;-80
2023/01/25 01:40:06;;;;;;;8.82;5.40;;;;;;;;;;10431588;28;20210;-80
2023/01/25 01:45:25;;;;;;;8.20;5.45;;;;;;;;;;10414814;28;20229;-80
2023/01/25 01:50:27;;;;;;;8.50;4.43;;;;;;;;;;10413696;28;20306;-81
2023/01/25 01:55:29;;;;;;;8.98;5.35;;;;;;;;;;10420755;28;20217;-81
2023/01/25 02:00:33;;;;;;;8.43;4.72;;;;;;;;;;10429437;28;20225;-75
2023/01/25 02:05:44;;;;;;;10.32;5.03;;;;;;;;;;10426754;28;20726;-81
2023/01/25 02:10:45;;;;;;;10.02;5.03;;;;;;;;;;10444040;28;20195;-80
2023/01/25 02:15:48;;;;;;;12.02;6.03;;;;;;;;;;10420253;28;20226;-81
2023/01/25 02:20:52;;;;;;;12.77;5.43;;;;;;;;;;10459194;28;20865;-80
2023/01/25 02:25:54;;;;;;;8.75;4.78;;;;;;;;;;10431899;28;20332;-81
2023/01/25 02:30:55;;;;;;;16.17;6.13;;;;;;;;;;10413167;28;20207;-81
2023/01/25 02:36:07;;;;;;;11.02;6.30;;;;;;;;;;10389788;28;20210;-81
2023/01/25 02:41:14;;;;;;;12.60;6.82;;;;;;;;;;10403906;28;20696;-81
2023/01/25 02:46:21;;;;;;;13.95;7.05;;;;;;;;;;10397379;28;20218;-80
2023/01/25 02:51:23;;;;;;;14.05;5.47;;;;;;;;;;10408414;28;20915;-77
2023/01/25 02:56:25;;;;;;;12.77;6.60;;;;;;;;;;10408565;28;20233;-81
2023/01/25 03:01:26;;;;;;;10.82;5.28;;;;;;;;;;10418898;28;20221;-80
2023/01/25 03:06:28;;;;;;;10.80;6.53;;;;;;;;;;10427515;28;20210;-77
2023/01/25 03:11:29;;;;;;;11.05;6.30;;;;;;;;;;10405397;28;20249;-79
2023/01/25 03:16:32;;;;;;;17.90;7.10;;;;;;;;;;10401603;28;20215;-81
2023/01/25 03:21:35;;;;;;;13.32;6.43;;;;;;;;;;10412752;28;20206;-79
2023/01/25 03:27:09;;;;;;;15.45;7.07;;;;;;;;;;10425382;28;20221;-79
2023/01/25 03:32:05;;;;;;;15.48;7.80;;;;;;;;;;10412046;28;20207;-80
2023/01/25 03:37:06;;;;;;;15.90;6.90;;;;;;;;;;10430005;28;20214;-80
2023/01/25 03:42:09;;;;;;;16.10;7.68;;;;;;;;;;10421067;28;20230;-78
2023/01/25 03:47:10;;;;;;;13.45;8.45;;;;;;;;;;10432736;28;20710;-80
2023/01/25 03:52:12;;;;;;;17.48;7.90;;;;;;;;;;10412230;28;20368;-78
2023/01/25 03:57:15;;;;;;;12.57;6.93;;;;;;;;;;10414459;28;20214;-80
2023/01/25 04:02:31;;;;;;;19.70;8.07;;;;;;;;;;10445516;28;20209;-80
2023/01/25 04:07:33;;;;;;;15.77;8.20;;;;;;;;;;10432437;28;20299;-80
2023/01/25 04:12:34;;;;;;;15.57;8.32;;;;;;;;;;10413227;28;20508;-80
2023/01/25 04:17:35;;;;;;;18.00;7.57;;;;;;;;;;10431411;28;20218;-78
2023/01/25 04:22:46;;;;;;;13.43;6.93;;;;;;;;;;10410101;28;20245;-80
2023/01/25 04:27:50;;;;;;;13.30;6.80;;;;;;;;;;10406417;28;20214;-81
2023/01/25 04:32:52;;;;;;;15.10;7.88;;;;;;;;;;10401842;28;20223;-79
2023/01/25 04:37:59;;;;;;;12.88;6.20;;;;;;;;;;10437310;28;20244;-80
2023/01/25 04:43:07;;;;;;;15.30;7.38;;;;;;;;;;10407601;28;20218;-79
2023/01/25 04:48:10;;;;;;;15.60;7.82;;;;;;;;;;10400524;28;20207;-79
2023/01/25 04:53:15;;;;;;;13.57;7.60;;;;;;;;;;10404459;28;20716;-80
2023/01/25 04:58:18;;;;;;;8.38;4.93;;;;;;;;;;10422095;28;20590;-78
2023/01/25 05:03:19;;;;;;;16.13;7.40;;;;;;;;;;10418258;28;20210;-79
2023/01/25 05:08:20;;;;;;;12.70;6.13;;;;;;;;;;10432494;28;20305;-80
2023/01/25 05:13:22;;;;;;;9.90;6.22;;;;;;;;;;10431035;28;20206;-80
2023/01/25 05:18:28;;;;;;;15.63;7.75;;;;;;;;;;10438805;28;20258;-81
2023/01/25 05:23:30;;;;;;;14.95;7.25;;;;;;;;;;10421026;28;20202;-80
2023/01/25 05:28:32;;;;;;;14.65;6.35;;;;;;;;;;10413626;28;20625;-80
2023/01/25 05:33:52;;;;;;;11.82;6.70;;;;;;;;;;10436833;28;20211;-80
2023/01/25 05:38:55;;;;;;;10.30;5.93;;;;;;;;;;10419345;28;20222;-79
2023/01/25 05:43:56;;;;;;;14.77;6.95;;;;;;;;;;10415704;28;20202;-80
2023/01/25 05:48:59;;;;;;;12.02;6.32;;;;;;;;;;10430807;28;20289;-82
2023/01/25 05:54:02;;;;;;;14.20;6.88;;;;;;;;;;10386698;28;20272;-81
2023/01/25 05:59:04;;;;;;;19.90;8.02;;;;;;;;;;10418827;28;20226;-81
2023/01/25 06:04:06;;;;;;;15.50;6.93;;;;;;;;;;10424123;28;20210;-80
2023/01/25 06:09:07;;;;;;;22.55;8.30;;;;;;;;;;10418226;28;20219;-81
2023/01/25 06:14:09;;;;;;;21.05;8.23;;;;;;;;;;10436584;28;20214;-80
2023/01/25 06:19:12;;;;;;;19.63;7.82;;;;;;;;;;10439302;28;20217;-81
2023/01/25 06:24:25;;;;;;;24.00;8.57;;;;;;;;;;10433569;28;20215;-82
2023/01/25 06:29:26;;;;;;;13.13;6.72;;;;;;;;;;10416380;28;20214;-81
2023/01/25 06:34:27;;;;;;;17.43;7.73;;;;;;;;;;10400235;28;20222;-82
2023/01/25 06:39:29;;;;;;;17.25;7.82;;;;;;;;;;10403386;28;20222;-82
2023/01/25 06:44:30;;;;;;;16.00;7.18;;;;;;;;;;10430359;28;20230;-80
2023/01/25 06:49:31;;;;;;;14.98;7.00;;;;;;;;;;10422114;28;20245;-79
2023/01/25 06:54:33;;;;;;;16.17;7.90;;;;;;;;;;10433933;28;20226;-79
2023/01/25 06:59:34;;;;;;;17.52;8.02;;;;;;;;;;10415152;28;20221;-80
2023/01/25 07:04:35;;;;;;;15.65;7.05;;;;;;;;;;10447285;28;20220;-78
2023/01/25 07:09:36;;;;;;;21.52;8.45;;;;;;;;;;10419716;28;20218;-82
2023/01/25 07:14:37;;;;;;;19.38;7.93;;;;;;;;;;10409211;28;20222;-82
2023/01/25 07:19:39;;;;;;;22.23;9.07;;;;;;;;;;10437132;28;20222;-81
2023/01/25 07:24:40;;;;;;;20.80;9.50;;;;;;;;;;10429904;28;21051;-81
2023/01/25 07:29:41;;;;;;;19.05;10.10;;;;;;;;;;10408229;28;20318;-80
2023/01/25 07:34:42;;;;;;;19.20;8.60;;;;;;;;;;10431204;28;20230;-79
2023/01/25 07:39:49;;;;;;;28.75;10.27;;;;;;;;;;10431740;28;20223;-82
2023/01/25 07:44:50;;;;;;;21.48;9.77;;;;;;;;;;10416488;28;20207;-79
2023/01/25 07:49:53;;;;;;;20.88;9.98;;;;;;;;;;10398904;28;20219;-80
2023/01/25 07:54:54;;;;;;;24.48;9.90;;;;;;;;;;10417105;28;20214;-80
2023/01/25 07:59:56;;;;;;;30.60;12.18;;;;;;;;;;10430087;28;20222;-81
2023/01/25 08:04:57;;;;;;;27.15;9.93;;;;;;;;;;10433070;28;20278;-80
2023/01/25 08:09:58;;;;;;;25.65;11.30;;;;;;;;;;10430506;28;20226;-81
2023/01/25 08:14:59;;;;;;;35.22;10.68;;;;;;;;;;10433691;28;20210;-79
2023/01/25 08:20:01;;;;;;;28.95;10.23;;;;;;;;;;10432926;28;20214;-81
2023/01/25 08:25:03;;;;;;;29.38;11.30;;;;;;;;;;10439095;28;20207;-81
2023/01/25 08:30:05;;;;;;;36.50;12.20;;;;;;;;;;10415625;28;20241;-81
2023/01/25 08:35:06;;;;;;;32.13;10.13;;;;;;;;;;10422076;28;20236;-79
2023/01/25 08:40:08;;;;;;;28.08;10.10;;;;;;;;;;10429909;28;20206;-80
2023/01/25 08:45:09;;;;;;;29.60;10.15;;;;;;;;;;10437776;28;20555;-79
2023/01/25 08:50:11;;;;;;;27.40;9.90;;;;;;;;;;10396291;28;20214;-79
2023/01/25 08:55:12;;;;;;;33.60;9.98;;;;;;;;;;10404107;28;20368;-80
2023/01/25 09:00:13;;;;;;;25.55;9.95;;;;;;;;;;10436572;28;20210;-80
2023/01/25 09:05:14;;;;;;;20.60;8.93;;;;;;;;;;10419157;28;20184;-80
2023/01/25 09:10:16;;;;;;;18.63;8.70;;;;;;;;;;10438201;28;20195;-81
2023/01/25 09:15:17;;;;;;;27.40;10.57;;;;;;;;;;10437346;28;20178;-80
2023/01/25 09:20:18;;;;;;;28.10;9.20;;;;;;;;;;10436352;28;20265;-79
2023/01/25 09:25:19;;;;;;;30.27;9.93;;;;;;;;;;10403171;28;20251;-80
2023/01/25 09:30:20;;;;;;;23.35;8.35;;;;;;;;;;10436210;28;20199;-81
2023/01/25 09:35:28;;;;;;;21.13;8.25;;;;;;;;;;10421368;28;20210;-81
2023/01/25 09:40:33;;;;;;;22.88;7.18;;;;;;;;;;10433741;28;20292;-82
2023/01/25 09:45:35;;;;;;;20.00;8.48;;;;;;;;;;10439140;28;20321;-78
2023/01/25 09:50:37;;;;;;;14.85;7.28;;;;;;;;;;10436584;28;20227;-80
2023/01/25 09:55:38;;;;;;;22.77;7.85;;;;;;;;;;10434264;28;20294;-80
2023/01/25 10:00:47;;;;;;;20.65;5.88;;;;;;;;;;10438397;28;20242;-79
2023/01/25 10:05:52;;;;;;;23.50;7.15;;;;;;;;;;10431242;28;20226;-79
2023/01/25 10:11:16;;;;;;;20.23;7.25;;;;;;;;;;10426202;28;20255;-80
2023/01/25 10:16:17;;;;;;;18.40;7.55;;;;;;;;;;10422265;28;20217;-78
2023/01/25 10:21:20;;;;;;;20.27;5.85;;;;;;;;;;10433345;28;20210;-81
2023/01/25 10:26:26;;;;;;;19.13;6.22;;;;;;;;;;10418595;28;20214;-80
2023/01/25 10:31:38;;;;;;;17.67;6.15;;;;;;;;;;10420339;28;20288;-81
2023/01/25 10:36:39;;;;;;;17.95;6.07;;;;;;;;;;10433065;28;20224;-81
2023/01/25 10:41:46;;;;;;;12.75;5.63;;;;;;;;;;10397104;28;20219;-81
2023/01/25 10:46:59;;;;;;;14.57;7.35;;;;;;;;;;10448839;28;20218;-80
2023/01/25 10:52:17;;;;;;;18.42;5.65;;;;;;;;;;10415700;28;20214;-80
2023/01/25 10:57:19;;;;;;;17.30;6.13;;;;;;;;;;10432179;28;20708;-80
2023/01/25 11:02:35;;;;;;;14.40;7.97;;;;;;;;;;10434138;28;20213;-79
2023/01/25 11:07:36;;;;;;;14.15;6.47;;;;;;;;;;10415107;28;20228;-81
2023/01/25 11:12:37;;;;;;;15.02;6.18;;;;;;;;;;10416636;28;20214;-80
2023/01/25 11:17:38;;;;;;;17.75;8.63;;;;;;;;;;10432259;28;20662;-81
2023/01/25 11:22:48;;;;;;;13.55;8.23;;;;;;;;;;10408538;28;20213;-80
2023/01/25 11:27:49;;;;;;;14.50;6.80;;;;;;;;;;10402425;28;20226;-79
2023/01/25 11:32:50;;;;;;;22.35;8.40;;;;;;;;;;10420185;28;21005;-79
2023/01/25 11:38:05;;;;;;;17.57;8.33;;;;;;;;;;10429042;28;20218;-80
2023/01/25 11:43:15;;;;;;;16.77;7.75;;;;;;;;;;10434408;28;20214;-79
2023/01/25 11:48:28;;;;;;;15.18;8.32;;;;;;;;;;10433966;28;20282;-80
2023/01/25 11:53:48;;;;;;;15.05;7.22;;;;;;;;;;10440388;28;20806;-80
2023/01/25 11:58:55;;;;;;;21.00;8.27;;;;;;;;;;10427741;28;20235;-82
2023/01/25 12:04:06;;;;;;;19.67;8.48;;;;;;;;;;10394278;28;20288;-80
2023/01/25 12:09:14;;;;;;;21.02;8.25;;;;;;;;;;10412248;28;20207;-79
2023/01/25 12:14:30;;;;;;;15.83;7.10;;;;;;;;;;10431001;28;20704;-81
2023/01/25 12:19:31;;;;;;;17.70;8.23;;;;;;;;;;10432606;28;20217;-80
2023/01/25 12:24:41;;;;;;;17.17;7.72;;;;;;;;;;10416569;28;20237;-80
2023/01/25 12:29:44;;;;;;;19.08;8.82;;;;;;;;;;10429754;28;20780;-80
2023/01/25 12:34:50;;;;;;;16.27;9.00;;;;;;;;;;10421455;28;20219;-80
2023/01/25 12:46:17;;;;;;;13.55;7.45;;;;;;;;;;10433450;28;20234;-81
2023/01/25 12:51:19;;;;;;;24.67;9.85;;;;;;;;;;10411198;28;20475;-80
2023/01/25 12:56:42;;;;;;;19.95;7.63;;;;;;;;;;10433070;28;20218;-81
2023/01/25 13:02:06;;;;;;;14.98;7.57;;;;;;;;;;10399263;28;20214;-81
2023/01/25 13:07:23;;;;;;;14.40;6.80;;;;;;;;;;10414383;28;20681;-80
2023/01/25 13:12:24;;;;;;;15.00;6.28;;;;;;;;;;10436666;28;20226;-80
2023/01/25 13:17:32;;;;;;;16.40;7.63;;;;;;;;;;10420139;28;21263;-81
2023/01/25 13:22:45;;;;;;;13.88;6.97;;;;;;;;;;10438107;28;20296;-81
2023/01/25 13:27:46;;;;;;;15.60;7.85;;;;;;;;;;10419590;28;20223;-80
2023/01/25 13:32:50;;;;;;;13.95;7.75;;;;;;;;;;10456211;28;20885;-83
2023/01/25 13:38:02;;;;;;;18.10;7.35;;;;;;;;;;10416454;28;20691;-81
2023/01/25 13:43:03;;;;;;;20.00;7.75;;;;;;;;;;10433361;28;20215;-81
2023/01/25 13:48:11;;;;;;;16.95;8.52;;;;;;;;;;10422330;28;20219;-81
2023/01/25 13:53:15;;;;;;;23.65;9.77;;;;;;;;;;10420357;28;20491;-80
2023/01/25 13:58:16;;;;;;;19.33;8.52;;;;;;;;;;10408508;28;20214;-81
2023/01/25 14:03:19;;;;;;;11.07;6.68;;;;;;;;;;10409722;28;20308;-80
2023/01/25 14:08:20;;;;;;;18.38;7.95;;;;;;;;;;10434614;28;20218;-81
2023/01/25 14:13:21;;;;;;;14.18;7.78;;;;;;;;;;10451365;28;20233;-79
2023/01/25 14:18:27;;;;;;;16.80;7.80;;;;;;;;;;10419783;28;20226;-80
2023/01/25 14:23:29;;;;;;;18.80;8.52;;;;;;;;;;10399900;28;20869;-76
2023/01/25 14:28:30;;;;;;;19.45;8.07;;;;;;;;;;10431139;28;20263;-79
2023/01/25 14:33:34;;;;;;;22.20;7.95;;;;;;;;;;10438440;28;20346;-80
2023/01/25 14:38:37;;;;;;;19.95;8.15;;;;;;;;;;10433600;28;20227;-81
2023/01/25 14:43:41;;;;;;;20.63;9.77;;;;;;;;;;10413853;28;20211;-81
2023/01/25 14:48:43;;;;;;;21.83;9.32;;;;;;;;;;10419170;28;20217;-79
2023/01/25 14:53:47;;;;;;;20.83;8.48;;;;;;;;;;10415938;28;20221;-80
2023/01/25 14:58:48;;;;;;;21.58;8.60;;;;;;;;;;10433040;28;20218;-80
2023/01/25 15:03:49;;;;;;;19.58;8.07;;;;;;;;;;10416868;28;20225;-78
2023/01/25 15:08:50;;;;;;;17.97;8.33;;;;;;;;;;10398780;28;20226;-80
2023/01/25 15:14:00;;;;;;;14.60;7.17;;;;;;;;;;10430924;28;20264;-79
2023/01/25 15:19:01;;;;;;;26.33;9.73;;;;;;;;;;10433350;28;20225;-79
2023/01/25 15:24:06;;;;;;;18.77;8.48;;;;;;;;;;10431653;28;20234;-82
2023/01/25 15:29:11;;;;;;;16.73;8.32;;;;;;;;;;10424973;28;21184;-79
2023/01/25 15:34:14;;;;;;;19.48;8.38;;;;;;;;;;10412090;28;20198;-80
2023/01/25 15:39:17;;;;;;;19.98;8.02;;;;;;;;;;10448662;28;21028;-79
2023/01/25 15:44:19;;;;;;;23.95;10.52;;;;;;;;;;10413584;28;20238;-80
2023/01/25 15:49:27;;;;;;;22.95;9.85;;;;;;;;;;10429791;28;20310;-80
2023/01/25 15:54:28;;;;;;;18.77;8.60;;;;;;;;;;10418796;28;20685;-79
2023/01/25 15:59:30;;;;;;;15.60;7.83;;;;;;;;;;10424004;28;20219;-79
2023/01/25 16:04:31;;;;;;;22.85;8.75;;;;;;;;;;10405336;28;20206;-79
2023/01/25 16:09:32;;;;;;;19.73;8.80;;;;;;;;;;10410107;28;20301;-79
2023/01/25 16:14:33;;;;;;;22.30;7.97;;;;;;;;;;10405877;28;20485;-80
2023/01/25 16:19:34;;;;;;;16.50;7.10;;;;;;;;;;10410063;28;20206;-79
2023/01/25 16:24:36;;;;;;;18.40;8.50;;;;;;;;;;10420494;28;20206;-80
2023/01/25 16:29:37;;;;;;;13.50;7.55;;;;;;;;;;10425805;28;20240;-80
2023/01/25 16:34:39;;;;;;;20.75;8.32;;;;;;;;;;10405602;28;20212;-79
2023/01/25 16:39:40;;;;;;;20.92;8.52;;;;;;;;;;10423059;28;20241;-79
2023/01/25 16:44:41;;;;;;;21.35;8.65;;;;;;;;;;10433911;28;20199;-79
2023/01/25 16:49:42;;;;;;;15.00;7.20;;;;;;;;;;10438940;28;20286;-79
2023/01/25 16:54:43;;;;;;;20.25;9.25;;;;;;;;;;10445275;28;20759;-80
2023/01/25 16:59:44;;;;;;;20.00;9.30;;;;;;;;;;10430832;28;20215;-79
2023/01/25 17:04:45;;;;;;;21.67;8.47;;;;;;;;;;10458992;28;20214;-79
2023/01/25 17:09:47;;;;;;;21.07;8.17;;;;;;;;;;10452630;28;20260;-82
2023/01/25 17:14:48;;;;;;;18.00;9.35;;;;;;;;;;10454908;28;20257;-80
2023/01/25 17:19:50;;;;;;;18.47;9.03;;;;;;;;;;10423320;28;20246;-82
2023/01/25 17:24:51;;;;;;;23.53;9.40;;;;;;;;;;10401755;28;20294;-79
2023/01/25 17:29:53;;;;;;;23.10;7.93;;;;;;;;;;10420902;28;20280;-79
2023/01/25 17:34:57;;;;;;;23.33;8.50;;;;;;;;;;10424797;28;20854;-80
2023/01/25 17:39:59;;;;;;;22.63;8.83;;;;;;;;;;10393626;28;20233;-80
2023/01/25 17:45:00;;;;;;;21.63;8.43;;;;;;;;;;10423853;28;20318;-81
2023/01/25 17:50:01;;;;;;;22.15;9.50;;;;;;;;;;10413826;28;20221;-79
2023/01/25 17:55:04;;;;;;;20.87;8.20;;;;;;;;;;10411880;28;20298;-80
2023/01/25 18:00:06;;;;;;;18.42;7.65;;;;;;;;;;10430640;28;20955;-80
2023/01/25 18:05:14;;;;;;;23.25;7.82;;;;;;;;;;10426172;28;20175;-82
2023/01/25 18:10:16;;;;;;;21.63;7.40;;;;;;;;;;10405323;28;20214;-79
2023/01/25 18:15:19;;;;;;;20.53;6.87;;;;;;;;;;10428112;28;20178;-81
2023/01/25 18:20:23;;;;;;;22.03;7.10;;;;;;;;;;10416729;28;20239;-81
2023/01/25 18:25:33;;;;;;;17.53;6.90;;;;;;;;;;10412533;28;20344;-80
2023/01/25 18:30:36;;;;;;;13.17;5.90;;;;;;;;;;10397258;28;20225;-82
2023/01/25 18:35:37;;;;;;;12.93;5.80;;;;;;;;;;10411921;28;20215;-82
2023/01/25 18:40:40;;;;;;;14.43;5.53;;;;;;;;;;10428661;28;20233;-82
2023/01/25 18:45:41;;;;;;;16.95;5.55;;;;;;;;;;10416219;28;20218;-81
2023/01/25 18:50:42;;;;;;;21.58;6.57;;;;;;;;;;10385225;28;20326;-81
2023/01/25 18:55:44;;;;;;;11.70;4.37;;;;;;;;;;10397166;28;20272;-81
2023/01/25 19:00:46;;;;;;;16.10;5.47;;;;;;;;;;10412127;28;20219;-82
2023/01/25 19:05:50;;;;;;;15.93;5.70;;;;;;;;;;10411075;28;20376;-81
2023/01/25 19:10:59;;;;;;;13.17;5.17;;;;;;;;;;10416866;28;20313;-80
2023/01/25 19:16:08;;;;;;;15.20;5.45;;;;;;;;;;10419245;28;20215;-82
2023/01/25 19:21:10;;;;;;;14.60;5.87;;;;;;;;;;10414894;28;20215;-81
2023/01/25 19:26:13;;;;;;;12.73;5.03;;;;;;;;;;10417141;28;20280;-81
2023/01/25 19:31:16;;;;;;;12.27;5.13;;;;;;;;;;10418534;28;20225;-81
2023/01/25 19:36:18;;;;;;;9.53;4.10;;;;;;;;;;10416028;28;20727;-82
2023/01/25 19:41:20;;;;;;;16.63;6.67;;;;;;;;;;10414405;28;20226;-81
2023/01/25 19:46:22;;;;;;;9.80;4.35;;;;;;;;;;10415590;28;20245;-80
2023/01/25 19:51:25;;;;;;;8.33;4.27;;;;;;;;;;10403612;28;20222;-81
2023/01/25 19:56:27;;;;;;;8.13;4.03;;;;;;;;;;10418087;28;20339;-82
2023/01/25 20:01:28;;;;;;;9.47;4.13;;;;;;;;;;10380716;28;20218;-82
2023/01/25 20:06:29;;;;;;;16.47;4.20;;;;;;;;;;10418129;28;20214;-82
2023/01/25 20:11:31;;;;;;;7.80;3.00;;;;;;;;;;10410801;28;20210;-83
2023/01/25 20:16:33;;;;;;;10.83;3.70;;;;;;;;;;10423484;28;20217;-81
2023/01/25 20:21:36;;;;;;;5.77;3.13;;;;;;;;;;10424880;28;20215;-83
2023/01/25 20:26:38;;;;;;;8.37;3.77;;;;;;;;;;10423705;28;20860;-81
2023/01/25 20:31:41;;;;;;;4.07;2.53;;;;;;;;;;10419372;28;21246;-81
2023/01/25 20:36:43;;;;;;;5.53;3.13;;;;;;;;;;10401541;28;20345;-80
2023/01/25 20:41:44;;;;;;;4.40;2.83;;;;;;;;;;10406852;28;20789;-81
2023/01/25 20:46:45;;;;;;;4.27;3.13;;;;;;;;;;10398345;28;22459;-82
2023/01/25 20:51:47;;;;;;;5.07;2.87;;;;;;;;;;10420659;28;20214;-81
2023/01/25 20:56:49;;;;;;;3.37;2.53;;;;;;;;;;10422181;28;20211;-81
2023/01/25 21:01:50;;;;;;;3.20;2.90;;;;;;;;;;10420298;28;20692;-81
2023/01/25 21:06:51;;;;;;;7.10;2.37;;;;;;;;;;10409976;28;20211;-81
2023/01/25 21:11:52;;;;;;;7.27;2.93;;;;;;;;;;10422946;28;20249;-81
2023/01/25 21:16:53;;;;;;;5.47;2.83;;;;;;;;;;10420892;28;20241;-81
2023/01/25 21:21:54;;;;;;;5.00;2.72;;;;;;;;;;10427505;28;21143;-81
2023/01/25 21:26:56;;;;;;;4.07;2.88;;;;;;;;;;10405478;28;20207;-80
2023/01/25 21:31:58;;;;;;;4.70;3.17;;;;;;;;;;10425581;28;20250;-81
2023/01/25 21:36:59;;;;;;;7.95;2.80;;;;;;;;;;10425193;28;20894;-79
2023/01/25 21:42:00;;;;;;;6.90;2.67;;;;;;;;;;10431343;28;20309;-80
2023/01/25 21:47:01;;;;;;;9.00;3.38;;;;;;;;;;10426958;28;20218;-80
2023/01/25 21:52:02;;;;;;;5.93;2.78;;;;;;;;;;10434636;28;20222;-78
2023/01/25 21:57:07;;;;;;;6.80;3.63;;;;;;;;;;10407829;28;20211;-80
2023/01/25 22:02:10;;;;;;;8.45;3.55;;;;;;;;;;10424390;28;20293;-78
2023/01/25 22:07:12;;;;;;;5.53;2.73;;;;;;;;;;10434844;28;20356;-78
2023/01/25 22:12:13;;;;;;;5.13;2.72;;;;;;;;;;10428717;28;20206;-78
2023/01/25 22:17:14;;;;;;;4.93;2.92;;;;;;;;;;10426918;28;20252;-80
2023/01/25 22:22:15;;;;;;;10.87;3.30;;;;;;;;;;10410509;28;20217;-81
2023/01/25 22:27:16;;;;;;;8.13;3.80;;;;;;;;;;10427391;28;20215;-78
2023/01/25 22:32:17;;;;;;;7.37;3.63;;;;;;;;;;10427283;28;20217;-80
2023/01/25 22:37:18;;;;;;;7.93;4.27;;;;;;;;;;10432814;28;20576;-80
2023/01/25 22:42:19;;;;;;;6.33;4.07;;;;;;;;;;10423406;28;20661;-82
2023/01/25 22:47:20;;;;;;;5.27;3.20;;;;;;;;;;10434822;28;20285;-80
2023/01/25 22:52:22;;;;;;;6.77;3.87;;;;;;;;;;10423013;28;20301;-80
2023/01/25 22:57:23;;;;;;;5.33;4.33;;;;;;;;;;10425118;28;20211;-80
2023/01/25 23:02:24;;;;;;;10.48;4.28;;;;;;;;;;10424837;28;20209;-80
2023/01/25 23:07:25;;;;;;;9.40;3.83;;;;;;;;;;10404793;28;20206;-80
2023/01/25 23:12:26;;;;;;;10.07;4.85;;;;;;;;;;10424633;28;20945;-80
2023/01/25 23:22:50;;;;;;;9.45;4.28;;;;;;;;;;10428194;28;20260;-80
2023/01/25 23:27:51;;;;;;;12.45;5.55;;;;;;;;;;10412378;28;20529;-80
2023/01/25 23:32:52;;;;;;;10.02;5.35;;;;;;;;;;10426638;28;20214;-80
2023/01/25 23:37:53;;;;;;;15.30;5.80;;;;;;;;;;10408163;28;20207;-79
2023/01/25 23:42:56;;;;;;;12.80;6.45;;;;;;;;;;10411665;28;20203;-81
2023/01/25 23:47:57;;;;;;;13.68;5.78;;;;;;;;;;10421237;28;20222;-81
2023/01/25 23:52:58;;;;;;;11.00;4.93;;;;;;;;;;10428927;28;20916;-81
2023/01/25 23:57:59;;;;;;;15.60;6.33;;;;;;;;;;10406333;28;20219;-79
